Archival Weather

NSFA McMurdo Sound

NSFA McMurdo Sound, Antarctica (NZCM)

Report from: Tuesday, June 6, 2023 3:55 AM UTC
Current time: Tuesday, July 16, 2024 3:45 PM UTC

Current weather – Weather history – Daily summaries
Weather forecast

Temperature-20.6°C (-5.1°F)
Wind chill-30.8°C (-23.5°F)
Dew point-31.2°C (-24.2°F)
Winds 10 kts (5.1 m/s, 11.5 mph) East-Northeast (60°)
Wind gusts 14 kts (7.2 m/s, 16.1 mph)
Visibility6.2 mi. (10 km)
Clouds Sky clear
Altimeter29.11 in.Hg (986 mB)
Relative humidity38 %
Density altitude-7,025 ft. (-2,141 m)
Sea-level pressure108.6 kPa (1086 mB, 32.08 in.Hg)
Remarks Fully automated report
Automated weather observing station with precipitation discriminator
Flight conditions Visual Meteorological Conditions
Raw dataNZCM 060355Z AUTO 06010G14KT 9999 CLR M21/M31 A2911 RMK AO2 SLP863 T12061312
An error has occurred. This application may no longer respond until reloaded. Reload 🗙